< < Back
Terminal Aerodrome Forecast


Current Version              Previous Versions:   1  2  3  4  5  6  7  8  9  

Terminal Aerodrome Forecast

648
FTUS42 KGSP 181258 AAA
TAFAND
TAF AMD
KAND 181258Z 1813/1912 08003KT 6SM BR OVC060
     FM181400 08006KT P6SM BKN060
     FM190400 08006KT P6SM OVC020
     FM190600 08005KT 4SM -SHRA BR OVC008
     FM190800 12008KT 3SM SHRA BR OVC003=



Latest METAR

127
SAUS70 KWBC 190100 RRI
MTRAND
METAR KAND 190056Z AUTO 00000KT 10SM BKN080 19/18 A2997 RMK AO2 SLP143
T01940178


USA.gov is the U.S. government's official web portal to all federal, state and local government web resources and services.